sensor_id;sensor_type;location;lat;lon;timestamp;pressure;altitude;pressure_sealevel;temperature;humidity
55592;BME280;41454;53.396;-1.510;2023-08-12T00:00:11;99868.99;;;14.42;100.00
55592;BME280;41454;53.396;-1.510;2023-08-12T00:02:39;99866.26;;;14.51;100.00
55592;BME280;41454;53.396;-1.510;2023-08-12T00:05:08;99865.33;;;14.50;100.00
55592;BME280;41454;53.396;-1.510;2023-08-12T00:07:36;99866.55;;;14.75;100.00
55592;BME280;41454;53.396;-1.510;2023-08-12T00:10:04;99860.35;;;14.55;100.00
55592;BME280;41454;53.396;-1.510;2023-08-12T00:12:32;99858.26;;;14.45;100.00
55592;BME280;41454;53.396;-1.510;2023-08-12T00:15:00;99856.54;;;14.80;100.00
55592;BME280;41454;53.396;-1.510;2023-08-12T00:17:27;99852.37;;;14.36;100.00
55592;BME280;41454;53.396;-1.510;2023-08-12T00:19:54;99848.38;;;14.13;100.00
55592;BME280;41454;53.396;-1.510;2023-08-12T00:22:21;99847.80;;;14.12;100.00
55592;BME280;41454;53.396;-1.510;2023-08-12T00:24:49;99844.67;;;14.27;100.00
55592;BME280;41454;53.396;-1.510;2023-08-12T00:27:17;99847.70;;;13.93;100.00
55592;BME280;41454;53.396;-1.510;2023-08-12T00:29:44;99848.89;;;14.01;100.00
55592;BME280;41454;53.396;-1.510;2023-08-12T00:32:11;99850.65;;;13.75;100.00
55592;BME280;41454;53.396;-1.510;2023-08-12T00:34:39;99850.81;;;13.65;100.00
55592;BME280;41454;53.396;-1.510;2023-08-12T00:37:06;99849.53;;;13.82;100.00
55592;BME280;41454;53.396;-1.510;2023-08-12T00:39:33;99848.97;;;13.77;100.00
55592;BME280;41454;53.396;-1.510;2023-08-12T00:42:00;99845.87;;;14.06;100.00
55592;BME280;41454;53.396;-1.510;2023-08-12T00:44:27;99850.39;;;13.74;100.00
55592;BME280;41454;53.396;-1.510;2023-08-12T00:46:54;99845.06;;;13.80;100.00
55592;BME280;41454;53.396;-1.510;2023-08-12T00:49:22;99843.31;;;13.59;100.00
55592;BME280;41454;53.396;-1.510;2023-08-12T00:51:51;99840.37;;;13.93;100.00
55592;BME280;41454;53.396;-1.510;2023-08-12T00:54:21;99835.77;;;13.29;100.00
55592;BME280;41454;53.396;-1.510;2023-08-12T00:56:49;99830.63;;;14.05;100.00
55592;BME280;41454;53.396;-1.510;2023-08-12T00:59:17;99829.48;;;13.78;100.00
55592;BME280;41454;53.396;-1.510;2023-08-12T01:01:47;99826.56;;;13.87;100.00
55592;BME280;41454;53.396;-1.510;2023-08-12T01:04:15;99824.52;;;13.65;100.00
55592;BME280;41454;53.396;-1.510;2023-08-12T01:06:41;99824.58;;;13.93;100.00
55592;BME280;41454;53.396;-1.510;2023-08-12T01:09:08;99824.35;;;13.22;100.00
55592;BME280;41454;53.396;-1.510;2023-08-12T01:11:40;99822.23;;;14.22;100.00
55592;BME280;41454;53.396;-1.510;2023-08-12T01:14:14;99820.50;;;13.69;100.00
55592;BME280;41454;53.396;-1.510;2023-08-12T01:16:45;99822.50;;;14.15;100.00
55592;BME280;41454;53.396;-1.510;2023-08-12T01:19:29;99821.18;;;14.10;100.00
55592;BME280;41454;53.396;-1.510;2023-08-12T01:21:59;99819.64;;;14.00;100.00
55592;BME280;41454;53.396;-1.510;2023-08-12T01:24:34;99815.03;;;13.72;100.00
55592;BME280;41454;53.396;-1.510;2023-08-12T01:27:01;99816.70;;;14.51;100.00
55592;BME280;41454;53.396;-1.510;2023-08-12T01:29:29;99808.03;;;13.88;100.00
55592;BME280;41454;53.396;-1.510;2023-08-12T01:32:03;99804.58;;;13.91;100.00
55592;BME280;41454;53.396;-1.510;2023-08-12T01:34:40;99796.12;;;14.37;100.00
55592;BME280;41454;53.396;-1.510;2023-08-12T01:37:13;99793.98;;;14.34;100.00
55592;BME280;41454;53.396;-1.510;2023-08-12T01:39:41;99789.11;;;14.41;100.00
55592;BME280;41454;53.396;-1.510;2023-08-12T01:42:10;99788.13;;;14.27;100.00
55592;BME280;41454;53.396;-1.510;2023-08-12T01:44:38;99788.02;;;13.80;100.00
55592;BME280;41454;53.396;-1.510;2023-08-12T01:47:08;99782.92;;;14.02;100.00
55592;BME280;41454;53.396;-1.510;2023-08-12T01:49:36;99783.43;;;13.99;100.00
55592;BME280;41454;53.396;-1.510;2023-08-12T01:52:03;99785.32;;;13.73;100.00
55592;BME280;41454;53.396;-1.510;2023-08-12T01:54:30;99778.95;;;14.09;100.00
55592;BME280;41454;53.396;-1.510;2023-08-12T01:56:57;99772.09;;;14.33;100.00
55592;BME280;41454;53.396;-1.510;2023-08-12T01:59:24;99773.20;;;14.07;100.00
55592;BME280;41454;53.396;-1.510;2023-08-12T02:01:51;99772.16;;;14.35;100.00
55592;BME280;41454;53.396;-1.510;2023-08-12T02:04:17;99768.86;;;14.45;100.00
55592;BME280;41454;53.396;-1.510;2023-08-12T02:06:44;99762.87;;;14.32;100.00
55592;BME280;41454;53.396;-1.510;2023-08-12T02:09:11;99760.58;;;14.30;100.00
55592;BME280;41454;53.396;-1.510;2023-08-12T02:11:38;99759.36;;;14.30;100.00
55592;BME280;41454;53.396;-1.510;2023-08-12T02:14:06;99766.76;;;14.60;100.00
55592;BME280;41454;53.396;-1.510;2023-08-12T02:16:33;99765.02;;;14.59;100.00
55592;BME280;41454;53.396;-1.510;2023-08-12T02:19:00;99757.84;;;14.02;100.00
55592;BME280;41454;53.396;-1.510;2023-08-12T02:21:27;99764.83;;;14.51;100.00
55592;BME280;41454;53.396;-1.510;2023-08-12T02:23:53;99756.35;;;14.43;100.00
55592;BME280;41454;53.396;-1.510;2023-08-12T02:26:20;99751.17;;;14.44;100.00
55592;BME280;41454;53.396;-1.510;2023-08-12T02:28:47;99744.52;;;14.91;100.00
55592;BME280;41454;53.396;-1.510;2023-08-12T02:31:15;99742.30;;;14.53;100.00
55592;BME280;41454;53.396;-1.510;2023-08-12T02:33:43;99740.96;;;14.58;100.00
55592;BME280;41454;53.396;-1.510;2023-08-12T02:36:10;99735.50;;;14.01;100.00
55592;BME280;41454;53.396;-1.510;2023-08-12T02:38:37;99734.30;;;14.21;100.00
55592;BME280;41454;53.396;-1.510;2023-08-12T02:41:05;99735.79;;;14.17;100.00
55592;BME280;41454;53.396;-1.510;2023-08-12T02:43:32;99736.00;;;14.04;100.00
55592;BME280;41454;53.396;-1.510;2023-08-12T02:45:59;99729.77;;;14.02;100.00
55592;BME280;41454;53.396;-1.510;2023-08-12T02:48:25;99734.45;;;13.99;100.00
55592;BME280;41454;53.396;-1.510;2023-08-12T02:50:52;99727.24;;;14.25;100.00
55592;BME280;41454;53.396;-1.510;2023-08-12T02:53:19;99724.37;;;14.31;100.00
55592;BME280;41454;53.396;-1.510;2023-08-12T02:55:46;99722.92;;;14.44;100.00
55592;BME280;41454;53.396;-1.510;2023-08-12T02:58:13;99720.77;;;14.20;100.00
55592;BME280;41454;53.396;-1.510;2023-08-12T03:00:41;99715.35;;;14.21;100.00
55592;BME280;41454;53.396;-1.510;2023-08-12T03:03:08;99715.00;;;13.97;100.00
55592;BME280;41454;53.396;-1.510;2023-08-12T03:05:35;99709.80;;;13.81;100.00
55592;BME280;41454;53.396;-1.510;2023-08-12T03:08:02;99706.67;;;13.83;100.00
55592;BME280;41454;53.396;-1.510;2023-08-12T03:10:29;99706.87;;;13.85;100.00
55592;BME280;41454;53.396;-1.510;2023-08-12T03:12:56;99704.24;;;14.04;100.00
55592;BME280;41454;53.396;-1.510;2023-08-12T03:15:23;99702.58;;;14.13;100.00
55592;BME280;41454;53.396;-1.510;2023-08-12T03:17:50;99704.74;;;13.79;100.00
55592;BME280;41454;53.396;-1.510;2023-08-12T03:20:17;99702.47;;;13.77;100.00
55592;BME280;41454;53.396;-1.510;2023-08-12T03:22:44;99697.34;;;14.20;100.00
55592;BME280;41454;53.396;-1.510;2023-08-12T03:25:11;99693.96;;;13.80;100.00
55592;BME280;41454;53.396;-1.510;2023-08-12T03:27:38;99694.14;;;14.24;100.00
55592;BME280;41454;53.396;-1.510;2023-08-12T03:30:07;99692.05;;;14.07;100.00
55592;BME280;41454;53.396;-1.510;2023-08-12T03:32:34;99688.19;;;13.59;100.00
55592;BME280;41454;53.396;-1.510;2023-08-12T03:35:01;99684.41;;;13.53;100.00
55592;BME280;41454;53.396;-1.510;2023-08-12T03:37:33;99678.98;;;13.46;100.00
55592;BME280;41454;53.396;-1.510;2023-08-12T03:40:00;99676.58;;;13.83;100.00
55592;BME280;41454;53.396;-1.510;2023-08-12T03:42:27;99675.07;;;13.76;100.00
55592;BME280;41454;53.396;-1.510;2023-08-12T03:44:54;99669.41;;;13.26;100.00
55592;BME280;41454;53.396;-1.510;2023-08-12T03:47:21;99667.46;;;13.27;100.00
55592;BME280;41454;53.396;-1.510;2023-08-12T03:49:48;99666.47;;;13.66;100.00
55592;BME280;41454;53.396;-1.510;2023-08-12T03:52:15;99671.07;;;13.28;100.00
55592;BME280;41454;53.396;-1.510;2023-08-12T03:54:42;99663.17;;;13.53;100.00
55592;BME280;41454;53.396;-1.510;2023-08-12T03:57:09;99669.11;;;13.12;100.00
55592;BME280;41454;53.396;-1.510;2023-08-12T03:59:36;99672.55;;;13.52;100.00
55592;BME280;41454;53.396;-1.510;2023-08-12T04:02:03;99675.45;;;13.68;100.00
55592;BME280;41454;53.396;-1.510;2023-08-12T04:04:30;99668.54;;;13.59;100.00
55592;BME280;41454;53.396;-1.510;2023-08-12T04:06:57;99659.25;;;13.80;100.00
55592;BME280;41454;53.396;-1.510;2023-08-12T04:09:24;99656.42;;;13.89;100.00
55592;BME280;41454;53.396;-1.510;2023-08-12T04:11:51;99655.08;;;13.36;100.00
55592;BME280;41454;53.396;-1.510;2023-08-12T04:14:19;99655.09;;;13.19;100.00
55592;BME280;41454;53.396;-1.510;2023-08-12T04:16:47;99654.00;;;13.04;100.00
55592;BME280;41454;53.396;-1.510;2023-08-12T04:19:13;99660.76;;;13.02;100.00
55592;BME280;41454;53.396;-1.510;2023-08-12T04:21:40;99659.37;;;13.41;100.00
55592;BME280;41454;53.396;-1.510;2023-08-12T04:24:12;99660.57;;;13.21;100.00
55592;BME280;41454;53.396;-1.510;2023-08-12T04:26:39;99667.98;;;13.90;100.00
55592;BME280;41454;53.396;-1.510;2023-08-12T04:29:07;99660.50;;;14.45;100.00
55592;BME280;41454;53.396;-1.510;2023-08-12T04:31:34;99658.25;;;14.41;100.00
55592;BME280;41454;53.396;-1.510;2023-08-12T04:34:01;99660.62;;;14.53;100.00
55592;BME280;41454;53.396;-1.510;2023-08-12T04:36:28;99657.82;;;14.45;100.00
55592;BME280;41454;53.396;-1.510;2023-08-12T04:38:55;99646.76;;;13.94;100.00
55592;BME280;41454;53.396;-1.510;2023-08-12T04:41:22;99643.45;;;13.81;100.00
55592;BME280;41454;53.396;-1.510;2023-08-12T04:43:49;99644.67;;;14.00;100.00
55592;BME280;41454;53.396;-1.510;2023-08-12T04:46:17;99645.06;;;13.71;100.00
55592;BME280;41454;53.396;-1.510;2023-08-12T04:48:44;99643.27;;;13.63;100.00
55592;BME280;41454;53.396;-1.510;2023-08-12T04:51:11;99641.97;;;13.62;100.00
55592;BME280;41454;53.396;-1.510;2023-08-12T04:53:37;99641.69;;;13.84;100.00
55592;BME280;41454;53.396;-1.510;2023-08-12T04:56:05;99642.47;;;13.75;100.00
55592;BME280;41454;53.396;-1.510;2023-08-12T04:58:32;99634.58;;;13.99;100.00
55592;BME280;41454;53.396;-1.510;2023-08-12T05:01:00;99629.80;;;13.49;100.00
55592;BME280;41454;53.396;-1.510;2023-08-12T05:03:27;99631.67;;;13.81;100.00
55592;BME280;41454;53.396;-1.510;2023-08-12T05:05:55;99631.21;;;13.86;100.00
55592;BME280;41454;53.396;-1.510;2023-08-12T05:08:22;99629.67;;;13.95;100.00
55592;BME280;41454;53.396;-1.510;2023-08-12T05:10:49;99632.39;;;14.15;100.00
55592;BME280;41454;53.396;-1.510;2023-08-12T05:13:17;99632.83;;;13.60;100.00
55592;BME280;41454;53.396;-1.510;2023-08-12T05:15:45;99632.60;;;13.70;100.00
55592;BME280;41454;53.396;-1.510;2023-08-12T05:18:13;99628.74;;;13.81;100.00
55592;BME280;41454;53.396;-1.510;2023-08-12T05:20:40;99625.13;;;14.05;100.00
55592;BME280;41454;53.396;-1.510;2023-08-12T05:23:07;99618.51;;;13.71;100.00
55592;BME280;41454;53.396;-1.510;2023-08-12T05:25:35;99619.74;;;13.86;100.00
55592;BME280;41454;53.396;-1.510;2023-08-12T05:28:03;99612.85;;;14.32;100.00
55592;BME280;41454;53.396;-1.510;2023-08-12T05:30:30;99608.96;;;14.06;100.00
55592;BME280;41454;53.396;-1.510;2023-08-12T05:32:56;99610.78;;;14.26;100.00
55592;BME280;41454;53.396;-1.510;2023-08-12T05:35:24;99604.50;;;14.43;100.00
55592;BME280;41454;53.396;-1.510;2023-08-12T05:37:52;99603.91;;;14.76;100.00
55592;BME280;41454;53.396;-1.510;2023-08-12T05:40:19;99598.29;;;14.12;100.00
55592;BME280;41454;53.396;-1.510;2023-08-12T05:42:46;99593.35;;;14.26;100.00
55592;BME280;41454;53.396;-1.510;2023-08-12T05:45:13;99599.64;;;14.08;100.00
55592;BME280;41454;53.396;-1.510;2023-08-12T05:47:41;99600.58;;;14.38;100.00
55592;BME280;41454;53.396;-1.510;2023-08-12T05:50:09;99594.22;;;13.69;100.00
55592;BME280;41454;53.396;-1.510;2023-08-12T05:52:36;99594.95;;;13.99;100.00
55592;BME280;41454;53.396;-1.510;2023-08-12T05:55:05;99594.06;;;14.33;100.00
55592;BME280;41454;53.396;-1.510;2023-08-12T05:57:32;99589.75;;;14.47;100.00
55592;BME280;41454;53.396;-1.510;2023-08-12T05:59:59;99584.03;;;14.21;100.00
55592;BME280;41454;53.396;-1.510;2023-08-12T06:02:26;99579.14;;;14.01;100.00
55592;BME280;41454;53.396;-1.510;2023-08-12T06:04:53;99578.57;;;14.06;100.00
55592;BME280;41454;53.396;-1.510;2023-08-12T06:07:20;99576.19;;;13.68;100.00
55592;BME280;41454;53.396;-1.510;2023-08-12T06:09:47;99580.15;;;14.12;100.00
55592;BME280;41454;53.396;-1.510;2023-08-12T06:12:14;99581.28;;;14.09;100.00
55592;BME280;41454;53.396;-1.510;2023-08-12T06:14:41;99581.73;;;13.93;100.00
55592;BME280;41454;53.396;-1.510;2023-08-12T06:17:08;99583.44;;;13.80;100.00
55592;BME280;41454;53.396;-1.510;2023-08-12T06:19:34;99586.23;;;14.18;100.00
55592;BME280;41454;53.396;-1.510;2023-08-12T06:22:02;99594.71;;;14.52;100.00
55592;BME280;41454;53.396;-1.510;2023-08-12T06:24:29;99590.08;;;14.13;100.00
55592;BME280;41454;53.396;-1.510;2023-08-12T06:26:56;99594.75;;;14.34;100.00
55592;BME280;41454;53.396;-1.510;2023-08-12T06:29:23;99595.23;;;14.33;100.00
55592;BME280;41454;53.396;-1.510;2023-08-12T06:31:52;99592.61;;;14.36;100.00
55592;BME280;41454;53.396;-1.510;2023-08-12T06:34:19;99595.21;;;14.25;100.00
55592;BME280;41454;53.396;-1.510;2023-08-12T06:36:46;99592.30;;;14.33;100.00
55592;BME280;41454;53.396;-1.510;2023-08-12T06:39:13;99596.71;;;13.50;100.00
55592;BME280;41454;53.396;-1.510;2023-08-12T06:41:40;99592.48;;;13.77;100.00
55592;BME280;41454;53.396;-1.510;2023-08-12T06:44:07;99590.54;;;13.87;100.00
55592;BME280;41454;53.396;-1.510;2023-08-12T06:46:35;99594.21;;;14.04;100.00
55592;BME280;41454;53.396;-1.510;2023-08-12T06:49:01;99596.07;;;13.74;100.00
55592;BME280;41454;53.396;-1.510;2023-08-12T06:51:28;99595.45;;;13.99;100.00
55592;BME280;41454;53.396;-1.510;2023-08-12T06:53:55;99598.24;;;14.31;100.00
55592;BME280;41454;53.396;-1.510;2023-08-12T06:56:21;99598.24;;;14.27;100.00
55592;BME280;41454;53.396;-1.510;2023-08-12T06:58:48;99599.81;;;13.86;100.00
55592;BME280;41454;53.396;-1.510;2023-08-12T07:01:20;99602.52;;;13.80;100.00
55592;BME280;41454;53.396;-1.510;2023-08-12T07:03:48;99598.66;;;14.08;100.00
55592;BME280;41454;53.396;-1.510;2023-08-12T07:06:15;99600.05;;;14.26;100.00
55592;BME280;41454;53.396;-1.510;2023-08-12T07:08:42;99603.33;;;14.22;100.00
55592;BME280;41454;53.396;-1.510;2023-08-12T07:11:09;99597.89;;;13.76;100.00
55592;BME280;41454;53.396;-1.510;2023-08-12T07:13:35;99597.95;;;14.19;100.00
55592;BME280;41454;53.396;-1.510;2023-08-12T07:16:02;99594.54;;;14.33;100.00
55592;BME280;41454;53.396;-1.510;2023-08-12T07:18:30;99592.25;;;14.42;100.00
55592;BME280;41454;53.396;-1.510;2023-08-12T07:20:57;99598.55;;;14.37;100.00
55592;BME280;41454;53.396;-1.510;2023-08-12T07:23:25;99601.00;;;14.11;100.00
55592;BME280;41454;53.396;-1.510;2023-08-12T07:25:52;99597.80;;;14.41;100.00
55592;BME280;41454;53.396;-1.510;2023-08-12T07:28:19;99599.95;;;14.18;100.00
55592;BME280;41454;53.396;-1.510;2023-08-12T07:30:46;99598.17;;;14.76;100.00
55592;BME280;41454;53.396;-1.510;2023-08-12T07:33:14;99587.62;;;14.44;100.00
55592;BME280;41454;53.396;-1.510;2023-08-12T07:35:41;99582.43;;;14.51;100.00
55592;BME280;41454;53.396;-1.510;2023-08-12T07:38:08;99576.40;;;13.96;100.00
55592;BME280;41454;53.396;-1.510;2023-08-12T07:40:35;99585.67;;;14.45;100.00
55592;BME280;41454;53.396;-1.510;2023-08-12T07:43:03;99579.65;;;14.54;100.00
55592;BME280;41454;53.396;-1.510;2023-08-12T07:45:30;99571.12;;;14.52;100.00
55592;BME280;41454;53.396;-1.510;2023-08-12T07:47:58;99569.23;;;14.47;100.00
55592;BME280;41454;53.396;-1.510;2023-08-12T07:50:25;99568.03;;;14.15;100.00
55592;BME280;41454;53.396;-1.510;2023-08-12T07:52:53;99564.94;;;14.45;100.00
55592;BME280;41454;53.396;-1.510;2023-08-12T07:55:19;99572.02;;;13.92;100.00
55592;BME280;41454;53.396;-1.510;2023-08-12T07:57:47;99561.65;;;14.46;100.00
55592;BME280;41454;53.396;-1.510;2023-08-12T08:00:14;99558.45;;;14.77;100.00
55592;BME280;41454;53.396;-1.510;2023-08-12T08:02:41;99552.68;;;14.57;100.00
55592;BME280;41454;53.396;-1.510;2023-08-12T08:05:08;99552.64;;;15.05;100.00
55592;BME280;41454;53.396;-1.510;2023-08-12T08:07:35;99553.45;;;15.16;100.00
55592;BME280;41454;53.396;-1.510;2023-08-12T08:10:02;99553.05;;;15.13;100.00
55592;BME280;41454;53.396;-1.510;2023-08-12T08:12:29;99551.22;;;15.30;100.00
55592;BME280;41454;53.396;-1.510;2023-08-12T08:14:57;99554.85;;;14.94;100.00
55592;BME280;41454;53.396;-1.510;2023-08-12T08:17:23;99546.98;;;15.01;100.00
55592;BME280;41454;53.396;-1.510;2023-08-12T08:19:50;99555.91;;;14.83;100.00
55592;BME280;41454;53.396;-1.510;2023-08-12T08:22:17;99550.32;;;14.95;100.00
55592;BME280;41454;53.396;-1.510;2023-08-12T08:24:44;99555.88;;;15.45;100.00
55592;BME280;41454;53.396;-1.510;2023-08-12T08:27:10;99554.56;;;14.56;100.00
55592;BME280;41454;53.396;-1.510;2023-08-12T08:29:38;99544.51;;;15.06;100.00
55592;BME280;41454;53.396;-1.510;2023-08-12T08:32:06;99533.54;;;15.27;100.00
55592;BME280;41454;53.396;-1.510;2023-08-12T08:34:33;99538.71;;;15.39;100.00
55592;BME280;41454;53.396;-1.510;2023-08-12T08:37:00;99537.30;;;15.65;100.00
55592;BME280;41454;53.396;-1.510;2023-08-12T08:39:26;99539.14;;;16.62;100.00
55592;BME280;41454;53.396;-1.510;2023-08-12T08:41:54;99539.56;;;16.37;100.00
55592;BME280;41454;53.396;-1.510;2023-08-12T08:44:22;99529.77;;;16.81;100.00
55592;BME280;41454;53.396;-1.510;2023-08-12T08:46:52;99530.19;;;16.75;100.00
55592;BME280;41454;53.396;-1.510;2023-08-12T08:49:20;99530.45;;;16.38;100.00
55592;BME280;41454;53.396;-1.510;2023-08-12T08:51:48;99526.19;;;16.65;100.00
55592;BME280;41454;53.396;-1.510;2023-08-12T08:54:16;99531.28;;;16.81;100.00
55592;BME280;41454;53.396;-1.510;2023-08-12T08:56:44;99529.55;;;16.97;100.00
55592;BME280;41454;53.396;-1.510;2023-08-12T08:59:11;99528.39;;;16.64;100.00
55592;BME280;41454;53.396;-1.510;2023-08-12T09:01:39;99532.02;;;17.39;100.00
55592;BME280;41454;53.396;-1.510;2023-08-12T09:04:07;99537.74;;;16.95;100.00
55592;BME280;41454;53.396;-1.510;2023-08-12T09:06:37;99534.70;;;17.06;100.00
55592;BME280;41454;53.396;-1.510;2023-08-12T09:09:10;99536.12;;;16.77;100.00
55592;BME280;41454;53.396;-1.510;2023-08-12T09:11:38;99543.17;;;16.71;100.00
55592;BME280;41454;53.396;-1.510;2023-08-12T09:14:07;99540.45;;;16.74;100.00
55592;BME280;41454;53.396;-1.510;2023-08-12T09:16:34;99539.14;;;16.84;100.00
55592;BME280;41454;53.396;-1.510;2023-08-12T09:19:01;99537.60;;;17.07;100.00
55592;BME280;41454;53.396;-1.510;2023-08-12T09:21:28;99535.84;;;17.29;100.00
55592;BME280;41454;53.396;-1.510;2023-08-12T09:23:56;99542.49;;;17.14;100.00
55592;BME280;41454;53.396;-1.510;2023-08-12T09:26:24;99533.91;;;16.92;100.00
55592;BME280;41454;53.396;-1.510;2023-08-12T09:28:50;99537.11;;;17.16;100.00
55592;BME280;41454;53.396;-1.510;2023-08-12T09:31:26;99534.09;;;17.16;100.00
55592;BME280;41454;53.396;-1.510;2023-08-12T09:33:54;99535.74;;;17.11;100.00
55592;BME280;41454;53.396;-1.510;2023-08-12T09:36:25;99536.01;;;17.09;100.00
55592;BME280;41454;53.396;-1.510;2023-08-12T09:38:54;99526.47;;;17.23;100.00
55592;BME280;41454;53.396;-1.510;2023-08-12T09:41:22;99527.16;;;16.56;100.00
55592;BME280;41454;53.396;-1.510;2023-08-12T09:43:51;99534.71;;;17.44;100.00
55592;BME280;41454;53.396;-1.510;2023-08-12T09:46:18;99540.19;;;16.81;100.00
55592;BME280;41454;53.396;-1.510;2023-08-12T09:48:49;99535.48;;;16.01;100.00
55592;BME280;41454;53.396;-1.510;2023-08-12T09:51:16;99529.83;;;16.69;100.00
55592;BME280;41454;53.396;-1.510;2023-08-12T09:53:43;99522.13;;;16.71;100.00
55592;BME280;41454;53.396;-1.510;2023-08-12T09:56:12;99516.24;;;16.54;100.00
55592;BME280;41454;53.396;-1.510;2023-08-12T09:58:40;99513.59;;;16.94;100.00
55592;BME280;41454;53.396;-1.510;2023-08-12T10:01:08;99503.70;;;17.13;100.00
55592;BME280;41454;53.396;-1.510;2023-08-12T10:03:37;99510.63;;;17.22;100.00
55592;BME280;41454;53.396;-1.510;2023-08-12T10:06:05;99506.42;;;17.13;100.00
55592;BME280;41454;53.396;-1.510;2023-08-12T10:08:32;99512.61;;;17.29;100.00
55592;BME280;41454;53.396;-1.510;2023-08-12T10:11:01;99514.44;;;16.91;100.00
55592;BME280;41454;53.396;-1.510;2023-08-12T10:13:29;99517.60;;;16.97;100.00
55592;BME280;41454;53.396;-1.510;2023-08-12T10:15:56;99520.35;;;17.57;100.00
55592;BME280;41454;53.396;-1.510;2023-08-12T10:18:24;99535.81;;;17.40;100.00
55592;BME280;41454;53.396;-1.510;2023-08-12T10:20:53;99519.78;;;17.13;100.00
55592;BME280;41454;53.396;-1.510;2023-08-12T10:23:21;99520.80;;;17.68;100.00
55592;BME280;41454;53.396;-1.510;2023-08-12T10:25:50;99525.41;;;18.06;100.00
55592;BME280;41454;53.396;-1.510;2023-08-12T10:28:19;99519.18;;;17.03;100.00
55592;BME280;41454;53.396;-1.510;2023-08-12T10:30:47;99511.14;;;17.97;100.00
55592;BME280;41454;53.396;-1.510;2023-08-12T10:33:15;99507.67;;;18.31;100.00
55592;BME280;41454;53.396;-1.510;2023-08-12T10:35:44;99509.67;;;18.45;100.00
55592;BME280;41454;53.396;-1.510;2023-08-12T10:38:13;99503.30;;;18.11;100.00
55592;BME280;41454;53.396;-1.510;2023-08-12T10:40:40;99504.44;;;18.25;100.00
55592;BME280;41454;53.396;-1.510;2023-08-12T10:43:08;99504.69;;;17.66;100.00
55592;BME280;41454;53.396;-1.510;2023-08-12T10:45:46;99511.77;;;18.38;100.00
55592;BME280;41454;53.396;-1.510;2023-08-12T10:48:18;99505.87;;;18.04;100.00
55592;BME280;41454;53.396;-1.510;2023-08-12T10:50:49;99511.27;;;18.30;100.00
55592;BME280;41454;53.396;-1.510;2023-08-12T10:53:23;99505.63;;;18.32;100.00
55592;BME280;41454;53.396;-1.510;2023-08-12T10:55:55;99503.75;;;18.13;100.00
55592;BME280;41454;53.396;-1.510;2023-08-12T10:58:28;99504.72;;;17.84;100.00
55592;BME280;41454;53.396;-1.510;2023-08-12T11:00:55;99494.74;;;17.13;100.00
55592;BME280;41454;53.396;-1.510;2023-08-12T11:03:23;99487.13;;;17.04;100.00
55592;BME280;41454;53.396;-1.510;2023-08-12T11:05:50;99478.10;;;17.99;100.00
55592;BME280;41454;53.396;-1.510;2023-08-12T11:08:17;99475.86;;;18.49;100.00
55592;BME280;41454;53.396;-1.510;2023-08-12T11:10:45;99474.79;;;18.36;100.00
55592;BME280;41454;53.396;-1.510;2023-08-12T11:13:14;99473.81;;;18.98;100.00
55592;BME280;41454;53.396;-1.510;2023-08-12T11:15:42;99477.02;;;18.27;100.00
55592;BME280;41454;53.396;-1.510;2023-08-12T11:18:12;99470.52;;;18.46;100.00
55592;BME280;41454;53.396;-1.510;2023-08-12T11:20:40;99476.23;;;18.58;100.00
55592;BME280;41454;53.396;-1.510;2023-08-12T11:23:09;99481.85;;;18.76;100.00
55592;BME280;41454;53.396;-1.510;2023-08-12T11:25:37;99487.58;;;19.26;100.00
55592;BME280;41454;53.396;-1.510;2023-08-12T11:28:06;99484.92;;;19.74;100.00
55592;BME280;41454;53.396;-1.510;2023-08-12T11:30:34;99488.76;;;18.93;100.00
55592;BME280;41454;53.396;-1.510;2023-08-12T11:33:02;99473.46;;;19.03;100.00
55592;BME280;41454;53.396;-1.510;2023-08-12T11:35:29;99482.22;;;18.49;100.00
55592;BME280;41454;53.396;-1.510;2023-08-12T11:37:57;99476.05;;;18.03;100.00
55592;BME280;41454;53.396;-1.510;2023-08-12T11:40:27;99473.67;;;18.92;100.00
55592;BME280;41454;53.396;-1.510;2023-08-12T11:42:55;99479.93;;;18.24;100.00
55592;BME280;41454;53.396;-1.510;2023-08-12T11:45:24;99470.38;;;19.30;100.00
55592;BME280;41454;53.396;-1.510;2023-08-12T11:47:51;99472.87;;;19.08;100.00
55592;BME280;41454;53.396;-1.510;2023-08-12T11:50:21;99478.18;;;19.11;100.00
55592;BME280;41454;53.396;-1.510;2023-08-12T11:52:48;99467.43;;;19.53;100.00
55592;BME280;41454;53.396;-1.510;2023-08-12T11:55:16;99470.10;;;18.63;100.00
55592;BME280;41454;53.396;-1.510;2023-08-12T11:57:44;99471.29;;;18.57;100.00
55592;BME280;41454;53.396;-1.510;2023-08-12T12:00:13;99466.21;;;18.47;100.00
55592;BME280;41454;53.396;-1.510;2023-08-12T12:02:46;99475.24;;;18.78;100.00
55592;BME280;41454;53.396;-1.510;2023-08-12T12:05:13;99470.25;;;19.40;100.00
55592;BME280;41454;53.396;-1.510;2023-08-12T12:07:41;99479.35;;;18.93;100.00
55592;BME280;41454;53.396;-1.510;2023-08-12T12:10:14;99481.23;;;18.56;100.00
55592;BME280;41454;53.396;-1.510;2023-08-12T12:12:45;99496.22;;;19.27;100.00
55592;BME280;41454;53.396;-1.510;2023-08-12T12:15:13;99504.94;;;19.17;100.00
55592;BME280;41454;53.396;-1.510;2023-08-12T12:17:41;99512.55;;;17.90;100.00
55592;BME280;41454;53.396;-1.510;2023-08-12T12:20:09;99515.33;;;16.43;100.00
55592;BME280;41454;53.396;-1.510;2023-08-12T12:22:36;99520.82;;;16.94;100.00
55592;BME280;41454;53.396;-1.510;2023-08-12T12:25:07;99522.17;;;16.33;100.00
55592;BME280;41454;53.396;-1.510;2023-08-12T12:27:34;99514.29;;;17.00;100.00
55592;BME280;41454;53.396;-1.510;2023-08-12T12:30:02;99502.82;;;17.43;100.00
55592;BME280;41454;53.396;-1.510;2023-08-12T12:32:29;99498.22;;;17.07;100.00
55592;BME280;41454;53.396;-1.510;2023-08-12T12:34:58;99495.26;;;17.48;100.00
55592;BME280;41454;53.396;-1.510;2023-08-12T12:37:27;99503.16;;;17.76;100.00
55592;BME280;41454;53.396;-1.510;2023-08-12T12:39:54;99499.50;;;17.56;100.00
55592;BME280;41454;53.396;-1.510;2023-08-12T12:42:21;99501.56;;;17.66;100.00